Columbus, Ohio
Traffic Map
Current Weather Conditions
Columbus, Ohio
Few Clouds
Few Clouds
11°
Feels Like: 11°
Wind Chill: 11° Ceiling: Unl
Heat Index: 11° Visibility: 10mi
Dew Point: Wind: 8mph
Humidity: 63% Direction: 350° (N)
Pressure: 30.23in Gusts: 0mph
Raw Report DataKCMH 190651Z 35007KT 10SM FEW250 11/04 A3023 RMK AO2 SLP235 T01060039
Traffic Incident Summary
Active as of:
Severity:
Category:
InformationThere was an issue retrieving the traffic information for this location. Please try a different location or try again shortly.
Advertisements
At Last! Intellicast now available for iPhone and Android